sensor_id;sensor_type;location;lat;lon;timestamp;P1;P2;P0
30342;PMS5003;17145;49.902;8.680;2024-01-10T00:02:13;18;18;
30342;PMS5003;17145;49.902;8.680;2024-01-10T00:04:40;17;16;
30342;PMS5003;17145;49.902;8.680;2024-01-10T00:07:08;21;18;
30342;PMS5003;17145;49.902;8.680;2024-01-10T00:09:35;18;14;
30342;PMS5003;17145;49.902;8.680;2024-01-10T00:12:02;28;18;
30342;PMS5003;17145;49.902;8.680;2024-01-10T00:14:30;18;18;
30342;PMS5003;17145;49.902;8.680;2024-01-10T00:16:57;22;20;
30342;PMS5003;17145;49.902;8.680;2024-01-10T00:19:25;17;17;
30342;PMS5003;17145;49.902;8.680;2024-01-10T00:21:52;22;17;
30342;PMS5003;17145;49.902;8.680;2024-01-10T00:24:20;21;17;
30342;PMS5003;17145;49.902;8.680;2024-01-10T00:26:47;20;18;
30342;PMS5003;17145;49.902;8.680;2024-01-10T00:29:14;20;20;
30342;PMS5003;17145;49.902;8.680;2024-01-10T00:31:42;20;18;
30342;PMS5003;17145;49.902;8.680;2024-01-10T00:34:09;18;18;
30342;PMS5003;17145;49.902;8.680;2024-01-10T00:36:37;17;16;
30342;PMS5003;17145;49.902;8.680;2024-01-10T00:39:04;20;17;
30342;PMS5003;17145;49.902;8.680;2024-01-10T00:41:32;17;17;
30342;PMS5003;17145;49.902;8.680;2024-01-10T00:43:59;17;16;
30342;PMS5003;17145;49.902;8.680;2024-01-10T00:46:26;18;18;
30342;PMS5003;17145;49.902;8.680;2024-01-10T00:48:53;20;17;
30342;PMS5003;17145;49.902;8.680;2024-01-10T00:51:21;28;18;
30342;PMS5003;17145;49.902;8.680;2024-01-10T00:53:48;21;18;
30342;PMS5003;17145;49.902;8.680;2024-01-10T00:56:16;17;16;
30342;PMS5003;17145;49.902;8.680;2024-01-10T00:58:43;19;17;
30342;PMS5003;17145;49.902;8.680;2024-01-10T01:01:11;20;17;
30342;PMS5003;17145;49.902;8.680;2024-01-10T01:03:38;16;16;
30342;PMS5003;17145;49.902;8.680;2024-01-10T01:06:06;28;17;
30342;PMS5003;17145;49.902;8.680;2024-01-10T01:08:33;17;16;
30342;PMS5003;17145;49.902;8.680;2024-01-10T01:11:00;19;16;
30342;PMS5003;17145;49.902;8.680;2024-01-10T01:13:29;17;16;
30342;PMS5003;17145;49.902;8.680;2024-01-10T01:15:56;17;16;
30342;PMS5003;17145;49.902;8.680;2024-01-10T01:18:23;17;16;
30342;PMS5003;17145;49.902;8.680;2024-01-10T01:20:51;20;19;
30342;PMS5003;17145;49.902;8.680;2024-01-10T01:23:18;24;19;
30342;PMS5003;17145;49.902;8.680;2024-01-10T01:25:46;17;17;
30342;PMS5003;17145;49.902;8.680;2024-01-10T01:28:13;17;17;
30342;PMS5003;17145;49.902;8.680;2024-01-10T01:30:40;19;16;
30342;PMS5003;17145;49.902;8.680;2024-01-10T01:33:08;16;15;
30342;PMS5003;17145;49.902;8.680;2024-01-10T01:35:35;21;19;
30342;PMS5003;17145;49.902;8.680;2024-01-10T01:38:03;20;17;
30342;PMS5003;17145;49.902;8.680;2024-01-10T01:40:30;23;20;
30342;PMS5003;17145;49.902;8.680;2024-01-10T01:42:58;19;17;
30342;PMS5003;17145;49.902;8.680;2024-01-10T01:45:25;16;14;
30342;PMS5003;17145;49.902;8.680;2024-01-10T01:47:52;17;17;
30342;PMS5003;17145;49.902;8.680;2024-01-10T01:50:20;28;17;
30342;PMS5003;17145;49.902;8.680;2024-01-10T01:52:48;23;17;
30342;PMS5003;17145;49.902;8.680;2024-01-10T01:55:16;14;13;
30342;PMS5003;17145;49.902;8.680;2024-01-10T01:57:44;17;17;
30342;PMS5003;17145;49.902;8.680;2024-01-10T02:00:12;19;17;
30342;PMS5003;17145;49.902;8.680;2024-01-10T02:02:40;25;17;
30342;PMS5003;17145;49.902;8.680;2024-01-10T02:05:10;19;17;
30342;PMS5003;17145;49.902;8.680;2024-01-10T02:07:38;27;19;
30342;PMS5003;17145;49.902;8.680;2024-01-10T02:10:05;19;16;
30342;PMS5003;17145;49.902;8.680;2024-01-10T02:12:33;20;17;
30342;PMS5003;17145;49.902;8.680;2024-01-10T02:15:01;23;19;
30342;PMS5003;17145;49.902;8.680;2024-01-10T02:17:29;17;17;
30342;PMS5003;17145;49.902;8.680;2024-01-10T02:22:34;20;19;
30342;PMS5003;17145;49.902;8.680;2024-01-10T02:25:01;24;19;
30342;PMS5003;17145;49.902;8.680;2024-01-10T02:27:30;23;19;
30342;PMS5003;17145;49.902;8.680;2024-01-10T02:29:57;17;15;
30342;PMS5003;17145;49.902;8.680;2024-01-10T02:32:28;17;14;
30342;PMS5003;17145;49.902;8.680;2024-01-10T02:34:56;24;20;
30342;PMS5003;17145;49.902;8.680;2024-01-10T02:37:23;20;19;
30342;PMS5003;17145;49.902;8.680;2024-01-10T02:39:50;22;19;
30342;PMS5003;17145;49.902;8.680;2024-01-10T02:42:18;16;15;
30342;PMS5003;17145;49.902;8.680;2024-01-10T02:44:45;13;13;
30342;PMS5003;17145;49.902;8.680;2024-01-10T02:47:12;13;12;
30342;PMS5003;17145;49.902;8.680;2024-01-10T02:49:40;20;16;
30342;PMS5003;17145;49.902;8.680;2024-01-10T02:52:07;17;16;
30342;PMS5003;17145;49.902;8.680;2024-01-10T02:54:35;17;16;
30342;PMS5003;17145;49.902;8.680;2024-01-10T02:57:02;16;16;
30342;PMS5003;17145;49.902;8.680;2024-01-10T02:59:29;19;16;
30342;PMS5003;17145;49.902;8.680;2024-01-10T03:01:58;19;17;
30342;PMS5003;17145;49.902;8.680;2024-01-10T03:04:25;31;24;
30342;PMS5003;17145;49.902;8.680;2024-01-10T03:06:52;17;16;
30342;PMS5003;17145;49.902;8.680;2024-01-10T03:09:20;15;15;
30342;PMS5003;17145;49.902;8.680;2024-01-10T03:11:47;16;16;
30342;PMS5003;17145;49.902;8.680;2024-01-10T03:14:16;17;13;
30342;PMS5003;17145;49.902;8.680;2024-01-10T03:16:43;13;13;
30342;PMS5003;17145;49.902;8.680;2024-01-10T03:19:10;22;15;
30342;PMS5003;17145;49.902;8.680;2024-01-10T03:21:38;15;15;
30342;PMS5003;17145;49.902;8.680;2024-01-10T03:24:05;12;12;
30342;PMS5003;17145;49.902;8.680;2024-01-10T03:26:33;13;13;
30342;PMS5003;17145;49.902;8.680;2024-01-10T03:29:01;13;13;
30342;PMS5003;17145;49.902;8.680;2024-01-10T03:31:28;29;12;
30342;PMS5003;17145;49.902;8.680;2024-01-10T03:33:56;13;12;
30342;PMS5003;17145;49.902;8.680;2024-01-10T03:36:24;15;15;
30342;PMS5003;17145;49.902;8.680;2024-01-10T03:38:53;18;16;
30342;PMS5003;17145;49.902;8.680;2024-01-10T03:41:20;16;13;
30342;PMS5003;17145;49.902;8.680;2024-01-10T03:43:48;19;16;
30342;PMS5003;17145;49.902;8.680;2024-01-10T03:46:15;19;18;
30342;PMS5003;17145;49.902;8.680;2024-01-10T03:48:43;20;19;
30342;PMS5003;17145;49.902;8.680;2024-01-10T03:51:10;19;19;
30342;PMS5003;17145;49.902;8.680;2024-01-10T03:53:38;19;19;
30342;PMS5003;17145;49.902;8.680;2024-01-10T03:56:05;22;20;
30342;PMS5003;17145;49.902;8.680;2024-01-10T03:58:33;25;23;
30342;PMS5003;17145;49.902;8.680;2024-01-10T04:01:03;26;26;
30342;PMS5003;17145;49.902;8.680;2024-01-10T04:03:31;23;23;
30342;PMS5003;17145;49.902;8.680;2024-01-10T04:05:59;28;23;
30342;PMS5003;17145;49.902;8.680;2024-01-10T04:08:26;29;26;
30342;PMS5003;17145;49.902;8.680;2024-01-10T04:10:54;23;22;
30342;PMS5003;17145;49.902;8.680;2024-01-10T04:13:23;19;18;
30342;PMS5003;17145;49.902;8.680;2024-01-10T04:15:51;15;14;
30342;PMS5003;17145;49.902;8.680;2024-01-10T04:18:19;16;14;
30342;PMS5003;17145;49.902;8.680;2024-01-10T04:20:47;14;12;
30342;PMS5003;17145;49.902;8.680;2024-01-10T04:23:15;15;14;
30342;PMS5003;17145;49.902;8.680;2024-01-10T04:25:42;14;11;
30342;PMS5003;17145;49.902;8.680;2024-01-10T04:28:09;11;9;
30342;PMS5003;17145;49.902;8.680;2024-01-10T04:30:37;14;11;
30342;PMS5003;17145;49.902;8.680;2024-01-10T04:33:04;12;11;
30342;PMS5003;17145;49.902;8.680;2024-01-10T04:35:33;11;9;
30342;PMS5003;17145;49.902;8.680;2024-01-10T04:38:00;11;9;
30342;PMS5003;17145;49.902;8.680;2024-01-10T04:40:27;9;9;
30342;PMS5003;17145;49.902;8.680;2024-01-10T04:42:55;8;8;
30342;PMS5003;17145;49.902;8.680;2024-01-10T04:45:22;9;8;
30342;PMS5003;17145;49.902;8.680;2024-01-10T04:47:49;7;7;
30342;PMS5003;17145;49.902;8.680;2024-01-10T04:50:17;9;8;
30342;PMS5003;17145;49.902;8.680;2024-01-10T04:52:45;8;8;
30342;PMS5003;17145;49.902;8.680;2024-01-10T04:55:12;8;7;
30342;PMS5003;17145;49.902;8.680;2024-01-10T04:57:39;8;8;
30342;PMS5003;17145;49.902;8.680;2024-01-10T05:00:07;8;8;
30342;PMS5003;17145;49.902;8.680;2024-01-10T05:02:35;5;5;
30342;PMS5003;17145;49.902;8.680;2024-01-10T05:05:02;7;7;
30342;PMS5003;17145;49.902;8.680;2024-01-10T05:07:30;8;7;
30342;PMS5003;17145;49.902;8.680;2024-01-10T05:09:57;9;8;
30342;PMS5003;17145;49.902;8.680;2024-01-10T05:12:25;8;7;
30342;PMS5003;17145;49.902;8.680;2024-01-10T05:14:52;8;8;
30342;PMS5003;17145;49.902;8.680;2024-01-10T05:17:19;7;7;
30342;PMS5003;17145;49.902;8.680;2024-01-10T05:19:47;7;7;
30342;PMS5003;17145;49.902;8.680;2024-01-10T05:22:14;5;5;
30342;PMS5003;17145;49.902;8.680;2024-01-10T05:24:42;7;7;
30342;PMS5003;17145;49.902;8.680;2024-01-10T05:27:09;7;7;
30342;PMS5003;17145;49.902;8.680;2024-01-10T05:29:36;7;7;
30342;PMS5003;17145;49.902;8.680;2024-01-10T05:32:04;8;7;
30342;PMS5003;17145;49.902;8.680;2024-01-10T05:34:32;7;7;
30342;PMS5003;17145;49.902;8.680;2024-01-10T05:36:59;7;5;
30342;PMS5003;17145;49.902;8.680;2024-01-10T05:39:26;7;7;
30342;PMS5003;17145;49.902;8.680;2024-01-10T05:41:54;5;5;
30342;PMS5003;17145;49.902;8.680;2024-01-10T05:44:21;5;5;
30342;PMS5003;17145;49.902;8.680;2024-01-10T05:46:49;7;5;
30342;PMS5003;17145;49.902;8.680;2024-01-10T05:49:16;7;7;
30342;PMS5003;17145;49.902;8.680;2024-01-10T05:51:45;8;5;
30342;PMS5003;17145;49.902;8.680;2024-01-10T05:54:12;8;7;
30342;PMS5003;17145;49.902;8.680;2024-01-10T05:56:40;7;7;
30342;PMS5003;17145;49.902;8.680;2024-01-10T05:59:07;7;7;
30342;PMS5003;17145;49.902;8.680;2024-01-10T06:01:34;8;8;
30342;PMS5003;17145;49.902;8.680;2024-01-10T06:04:02;7;7;
30342;PMS5003;17145;49.902;8.680;2024-01-10T06:06:29;7;4;
30342;PMS5003;17145;49.902;8.680;2024-01-10T06:08:56;7;7;
30342;PMS5003;17145;49.902;8.680;2024-01-10T06:11:24;5;5;
30342;PMS5003;17145;49.902;8.680;2024-01-10T06:13:51;7;7;
30342;PMS5003;17145;49.902;8.680;2024-01-10T06:16:19;8;7;
30342;PMS5003;17145;49.902;8.680;2024-01-10T06:18:46;8;7;
30342;PMS5003;17145;49.902;8.680;2024-01-10T06:21:13;5;5;
30342;PMS5003;17145;49.902;8.680;2024-01-10T06:23:41;5;5;
30342;PMS5003;17145;49.902;8.680;2024-01-10T06:26:09;8;7;
30342;PMS5003;17145;49.902;8.680;2024-01-10T06:28:36;5;5;
30342;PMS5003;17145;49.902;8.680;2024-01-10T06:31:04;7;5;
30342;PMS5003;17145;49.902;8.680;2024-01-10T06:33:31;8;7;
30342;PMS5003;17145;49.902;8.680;2024-01-10T06:35:58;7;7;
30342;PMS5003;17145;49.902;8.680;2024-01-10T06:38:26;5;4;
30342;PMS5003;17145;49.902;8.680;2024-01-10T06:40:53;5;5;
30342;PMS5003;17145;49.902;8.680;2024-01-10T06:43:20;5;4;
30342;PMS5003;17145;49.902;8.680;2024-01-10T06:45:47;7;5;
30342;PMS5003;17145;49.902;8.680;2024-01-10T06:48:15;5;5;
30342;PMS5003;17145;49.902;8.680;2024-01-10T06:50:42;5;5;
30342;PMS5003;17145;49.902;8.680;2024-01-10T06:53:10;8;5;
30342;PMS5003;17145;49.902;8.680;2024-01-10T06:55:37;5;4;
30342;PMS5003;17145;49.902;8.680;2024-01-10T06:58:04;7;5;
30342;PMS5003;17145;49.902;8.680;2024-01-10T07:00:32;5;5;
30342;PMS5003;17145;49.902;8.680;2024-01-10T07:03:01;7;7;
30342;PMS5003;17145;49.902;8.680;2024-01-10T07:05:28;5;5;
30342;PMS5003;17145;49.902;8.680;2024-01-10T07:07:55;7;5;
30342;PMS5003;17145;49.902;8.680;2024-01-10T07:10:23;4;4;
30342;PMS5003;17145;49.902;8.680;2024-01-10T07:12:50;8;7;
30342;PMS5003;17145;49.902;8.680;2024-01-10T07:15:18;7;5;
30342;PMS5003;17145;49.902;8.680;2024-01-10T07:17:45;7;5;
30342;PMS5003;17145;49.902;8.680;2024-01-10T07:20:12;7;7;
30342;PMS5003;17145;49.902;8.680;2024-01-10T07:22:40;5;5;
30342;PMS5003;17145;49.902;8.680;2024-01-10T07:25:07;7;5;
30342;PMS5003;17145;49.902;8.680;2024-01-10T07:27:36;4;4;
30342;PMS5003;17145;49.902;8.680;2024-01-10T07:30:04;8;8;
30342;PMS5003;17145;49.902;8.680;2024-01-10T07:32:32;7;7;
30342;PMS5003;17145;49.902;8.680;2024-01-10T07:35:00;4;4;
30342;PMS5003;17145;49.902;8.680;2024-01-10T07:37:27;7;5;
30342;PMS5003;17145;49.902;8.680;2024-01-10T07:39:55;5;5;
30342;PMS5003;17145;49.902;8.680;2024-01-10T07:42:22;4;4;
30342;PMS5003;17145;49.902;8.680;2024-01-10T07:44:50;7;5;
30342;PMS5003;17145;49.902;8.680;2024-01-10T07:47:17;7;5;
30342;PMS5003;17145;49.902;8.680;2024-01-10T07:49:44;4;4;
30342;PMS5003;17145;49.902;8.680;2024-01-10T07:52:11;7;5;
30342;PMS5003;17145;49.902;8.680;2024-01-10T07:54:39;7;7;
30342;PMS5003;17145;49.902;8.680;2024-01-10T07:57:06;5;5;
30342;PMS5003;17145;49.902;8.680;2024-01-10T07:59:34;8;7;
30342;PMS5003;17145;49.902;8.680;2024-01-10T08:02:01;10;10;
30342;PMS5003;17145;49.902;8.680;2024-01-10T08:04:28;7;7;
30342;PMS5003;17145;49.902;8.680;2024-01-10T08:06:56;4;4;
30342;PMS5003;17145;49.902;8.680;2024-01-10T08:09:23;8;8;
30342;PMS5003;17145;49.902;8.680;2024-01-10T08:11:50;7;5;
30342;PMS5003;17145;49.902;8.680;2024-01-10T08:14:18;5;5;
30342;PMS5003;17145;49.902;8.680;2024-01-10T08:16:45;5;5;
30342;PMS5003;17145;49.902;8.680;2024-01-10T08:19:13;5;5;
30342;PMS5003;17145;49.902;8.680;2024-01-10T08:21:40;4;4;
30342;PMS5003;17145;49.902;8.680;2024-01-10T08:24:08;5;5;
30342;PMS5003;17145;49.902;8.680;2024-01-10T08:26:35;4;4;
30342;PMS5003;17145;49.902;8.680;2024-01-10T08:29:03;5;5;
30342;PMS5003;17145;49.902;8.680;2024-01-10T08:31:30;7;5;
30342;PMS5003;17145;49.902;8.680;2024-01-10T08:33:58;5;5;
30342;PMS5003;17145;49.902;8.680;2024-01-10T08:36:25;5;5;
30342;PMS5003;17145;49.902;8.680;2024-01-10T08:38:52;5;5;
30342;PMS5003;17145;49.902;8.680;2024-01-10T08:41:20;7;5;
30342;PMS5003;17145;49.902;8.680;2024-01-10T08:43:47;4;4;
30342;PMS5003;17145;49.902;8.680;2024-01-10T08:46:15;5;4;
30342;PMS5003;17145;49.902;8.680;2024-01-10T08:48:42;5;5;
30342;PMS5003;17145;49.902;8.680;2024-01-10T08:51:10;5;5;
30342;PMS5003;17145;49.902;8.680;2024-01-10T08:53:37;7;7;
30342;PMS5003;17145;49.902;8.680;2024-01-10T08:56:05;8;7;
30342;PMS5003;17145;49.902;8.680;2024-01-10T08:58:32;5;5;
30342;PMS5003;17145;49.902;8.680;2024-01-10T09:01:00;7;5;
30342;PMS5003;17145;49.902;8.680;2024-01-10T09:03:27;8;7;
30342;PMS5003;17145;49.902;8.680;2024-01-10T09:05:54;7;7;
30342;PMS5003;17145;49.902;8.680;2024-01-10T09:08:22;4;4;
30342;PMS5003;17145;49.902;8.680;2024-01-10T09:10:50;5;5;
30342;PMS5003;17145;49.902;8.680;2024-01-10T09:13:17;11;8;
30342;PMS5003;17145;49.902;8.680;2024-01-10T09:15:44;7;7;
30342;PMS5003;17145;49.902;8.680;2024-01-10T09:18:12;7;7;
30342;PMS5003;17145;49.902;8.680;2024-01-10T09:20:39;5;5;
30342;PMS5003;17145;49.902;8.680;2024-01-10T09:23:07;5;5;
30342;PMS5003;17145;49.902;8.680;2024-01-10T09:25:34;5;5;
30342;PMS5003;17145;49.902;8.680;2024-01-10T09:28:03;7;7;
30342;PMS5003;17145;49.902;8.680;2024-01-10T09:30:31;8;7;
30342;PMS5003;17145;49.902;8.680;2024-01-10T09:32:59;8;7;
30342;PMS5003;17145;49.902;8.680;2024-01-10T09:35:26;10;7;
30342;PMS5003;17145;49.902;8.680;2024-01-10T09:37:53;5;4;
30342;PMS5003;17145;49.902;8.680;2024-01-10T09:40:21;7;7;
30342;PMS5003;17145;49.902;8.680;2024-01-10T09:42:49;7;7;
30342;PMS5003;17145;49.902;8.680;2024-01-10T09:45:17;7;7;
30342;PMS5003;17145;49.902;8.680;2024-01-10T09:47:46;7;7;
30342;PMS5003;17145;49.902;8.680;2024-01-10T09:50:17;7;7;
30342;PMS5003;17145;49.902;8.680;2024-01-10T09:52:46;5;5;
30342;PMS5003;17145;49.902;8.680;2024-01-10T09:55:18;7;7;
30342;PMS5003;17145;49.902;8.680;2024-01-10T09:57:48;8;7;
30342;PMS5003;17145;49.902;8.680;2024-01-10T10:00:16;8;7;
30342;PMS5003;17145;49.902;8.680;2024-01-10T10:02:45;7;7;
30342;PMS5003;17145;49.902;8.680;2024-01-10T10:05:13;8;7;
30342;PMS5003;17145;49.902;8.680;2024-01-10T10:07:43;5;5;
30342;PMS5003;17145;49.902;8.680;2024-01-10T10:10:11;8;8;
30342;PMS5003;17145;49.902;8.680;2024-01-10T10:12:42;7;7;
30342;PMS5003;17145;49.902;8.680;2024-01-10T10:15:11;7;7;
30342;PMS5003;17145;49.902;8.680;2024-01-10T10:17:40;7;7;
30342;PMS5003;17145;49.902;8.680;2024-01-10T10:20:08;8;8;
30342;PMS5003;17145;49.902;8.680;2024-01-10T10:22:36;7;7;
30342;PMS5003;17145;49.902;8.680;2024-01-10T10:25:04;5;5;
30342;PMS5003;17145;49.902;8.680;2024-01-10T10:27:32;10;8;
30342;PMS5003;17145;49.902;8.680;2024-01-10T10:30:02;8;7;
30342;PMS5003;17145;49.902;8.680;2024-01-10T10:32:31;7;7;
30342;PMS5003;17145;49.902;8.680;2024-01-10T10:34:58;8;7;
30342;PMS5003;17145;49.902;8.680;2024-01-10T10:37:27;5;5;
30342;PMS5003;17145;49.902;8.680;2024-01-10T10:39:55;11;7;
30342;PMS5003;17145;49.902;8.680;2024-01-10T10:42:22;7;5;
30342;PMS5003;17145;49.902;8.680;2024-01-10T10:44:52;7;5;
30342;PMS5003;17145;49.902;8.680;2024-01-10T10:47:24;7;7;
30342;PMS5003;17145;49.902;8.680;2024-01-10T10:49:57;8;7;
30342;PMS5003;17145;49.902;8.680;2024-01-10T10:52:29;7;7;
30342;PMS5003;17145;49.902;8.680;2024-01-10T10:54:58;8;7;
30342;PMS5003;17145;49.902;8.680;2024-01-10T10:57:25;7;7;
30342;PMS5003;17145;49.902;8.680;2024-01-10T10:59:54;5;5;
30342;PMS5003;17145;49.902;8.680;2024-01-10T11:02:23;7;7;
30342;PMS5003;17145;49.902;8.680;2024-01-10T11:04:51;5;5;
30342;PMS5003;17145;49.902;8.680;2024-01-10T11:07:20;8;7;
30342;PMS5003;17145;49.902;8.680;2024-01-10T11:09:48;5;5;
30342;PMS5003;17145;49.902;8.680;2024-01-10T11:12:23;5;4;
30342;PMS5003;17145;49.902;8.680;2024-01-10T11:15:03;8;5;
30342;PMS5003;17145;49.902;8.680;2024-01-10T11:17:45;5;5;
30342;PMS5003;17145;49.902;8.680;2024-01-10T11:20:34;5;5;
30342;PMS5003;17145;49.902;8.680;2024-01-10T11:23:17;5;5;
30342;PMS5003;17145;49.902;8.680;2024-01-10T11:25:58;5;4;
30342;PMS5003;17145;49.902;8.680;2024-01-10T11:28:26;7;5;
30342;PMS5003;17145;49.902;8.680;2024-01-10T11:30:53;5;5;
30342;PMS5003;17145;49.902;8.680;2024-01-10T11:33:21;4;4;
30342;PMS5003;17145;49.902;8.680;2024-01-10T11:38:33;4;4;
30342;PMS5003;17145;49.902;8.680;2024-01-10T11:41:05;5;5;
30342;PMS5003;17145;49.902;8.680;2024-01-10T11:43:32;4;4;
30342;PMS5003;17145;49.902;8.680;2024-01-10T11:46:00;5;5;
30342;PMS5003;17145;49.902;8.680;2024-01-10T11:48:28;7;5;
30342;PMS5003;17145;49.902;8.680;2024-01-10T11:50:58;5;4;
30342;PMS5003;17145;49.902;8.680;2024-01-10T11:56:08;7;5;
30342;PMS5003;17145;49.902;8.680;2024-01-10T12:01:20;7;5;
30342;PMS5003;17145;49.902;8.680;2024-01-10T12:03:48;4;4;
30342;PMS5003;17145;49.902;8.680;2024-01-10T12:06:19;5;5;
30342;PMS5003;17145;49.902;8.680;2024-01-10T12:08:48;8;5;
30342;PMS5003;17145;49.902;8.680;2024-01-10T12:13:43;5;5;
30342;PMS5003;17145;49.902;8.680;2024-01-10T12:16:11;4;4;
30342;PMS5003;17145;49.902;8.680;2024-01-10T12:18:39;4;4;
30342;PMS5003;17145;49.902;8.680;2024-01-10T12:21:07;8;5;
30342;PMS5003;17145;49.902;8.680;2024-01-10T12:23:35;5;5;
30342;PMS5003;17145;49.902;8.680;2024-01-10T12:26:03;4;4;
30342;PMS5003;17145;49.902;8.680;2024-01-10T12:28:31;4;4;
30342;PMS5003;17145;49.902;8.680;2024-01-10T12:30:58;4;4;
30342;PMS5003;17145;49.902;8.680;2024-01-10T12:33:26;5;5;
30342;PMS5003;17145;49.902;8.680;2024-01-10T12:36:03;5;4;
30342;PMS5003;17145;49.902;8.680;2024-01-10T12:38:33;7;4;
30342;PMS5003;17145;49.902;8.680;2024-01-10T12:41:01;5;4;
30342;PMS5003;17145;49.902;8.680;2024-01-10T12:43:29;5;5;
30342;PMS5003;17145;49.902;8.680;2024-01-10T12:46:03;7;5;
30342;PMS5003;17145;49.902;8.680;2024-01-10T12:48:31;2;2;
30342;PMS5003;17145;49.902;8.680;2024-01-10T12:51:00;4;4;
30342;PMS5003;17145;49.902;8.680;2024-01-10T12:53:28;5;5;
30342;PMS5003;17145;49.902;8.680;2024-01-10T12:55:56;7;5;
30342;PMS5003;17145;49.902;8.680;2024-01-10T12:58:24;5;5;
30342;PMS5003;17145;49.902;8.680;2024-01-10T13:00:51;4;4;
30342;PMS5003;17145;49.902;8.680;2024-01-10T13:03:19;8;7;
30342;PMS5003;17145;49.902;8.680;2024-01-10T13:05:46;5;5;
30342;PMS5003;17145;49.902;8.680;2024-01-10T13:08:14;7;5;
30342;PMS5003;17145;49.902;8.680;2024-01-10T13:10:42;4;4;
30342;PMS5003;17145;49.902;8.680;2024-01-10T13:13:10;4;4;
30342;PMS5003;17145;49.902;8.680;2024-01-10T13:15:38;4;4;
30342;PMS5003;17145;49.902;8.680;2024-01-10T13:18:06;4;4;
30342;PMS5003;17145;49.902;8.680;2024-01-10T13:20:33;4;4;
30342;PMS5003;17145;49.902;8.680;2024-01-10T13:23:01;5;4;
30342;PMS5003;17145;49.902;8.680;2024-01-10T13:25:28;4;4;
30342;PMS5003;17145;49.902;8.680;2024-01-10T13:27:55;5;5;
30342;PMS5003;17145;49.902;8.680;2024-01-10T13:30:23;5;4;
30342;PMS5003;17145;49.902;8.680;2024-01-10T13:32:50;5;4;
30342;PMS5003;17145;49.902;8.680;2024-01-10T13:35:18;7;5;
30342;PMS5003;17145;49.902;8.680;2024-01-10T13:37:45;7;5;
30342;PMS5003;17145;49.902;8.680;2024-01-10T13:40:13;4;4;
30342;PMS5003;17145;49.902;8.680;2024-01-10T13:42:40;4;4;
30342;PMS5003;17145;49.902;8.680;2024-01-10T13:45:09;5;4;
30342;PMS5003;17145;49.902;8.680;2024-01-10T13:47:37;2;2;
30342;PMS5003;17145;49.902;8.680;2024-01-10T13:50:06;5;5;
30342;PMS5003;17145;49.902;8.680;2024-01-10T13:52:34;7;5;
30342;PMS5003;17145;49.902;8.680;2024-01-10T13:55:02;7;7;
30342;PMS5003;17145;49.902;8.680;2024-01-10T13:57:30;4;4;
30342;PMS5003;17145;49.902;8.680;2024-01-10T13:59:58;4;2;
30342;PMS5003;17145;49.902;8.680;2024-01-10T14:02:26;5;4;
30342;PMS5003;17145;49.902;8.680;2024-01-10T14:04:53;4;4;
30342;PMS5003;17145;49.902;8.680;2024-01-10T14:07:21;4;4;
30342;PMS5003;17145;49.902;8.680;2024-01-10T14:09:48;4;4;
30342;PMS5003;17145;49.902;8.680;2024-01-10T14:12:16;5;5;
30342;PMS5003;17145;49.902;8.680;2024-01-10T14:14:43;4;4;
30342;PMS5003;17145;49.902;8.680;2024-01-10T14:17:10;4;4;
30342;PMS5003;17145;49.902;8.680;2024-01-10T14:19:38;4;4;
30342;PMS5003;17145;49.902;8.680;2024-01-10T14:22:05;5;5;
30342;PMS5003;17145;49.902;8.680;2024-01-10T14:24:33;5;4;
30342;PMS5003;17145;49.902;8.680;2024-01-10T14:27:00;5;5;
30342;PMS5003;17145;49.902;8.680;2024-01-10T14:29:28;5;5;
30342;PMS5003;17145;49.902;8.680;2024-01-10T14:31:55;5;5;
30342;PMS5003;17145;49.902;8.680;2024-01-10T14:34:22;5;5;
30342;PMS5003;17145;49.902;8.680;2024-01-10T14:36:50;5;5;
30342;PMS5003;17145;49.902;8.680;2024-01-10T14:39:17;4;4;
30342;PMS5003;17145;49.902;8.680;2024-01-10T14:41:45;5;5;
30342;PMS5003;17145;49.902;8.680;2024-01-10T14:44:12;5;5;
30342;PMS5003;17145;49.902;8.680;2024-01-10T14:46:40;7;5;
30342;PMS5003;17145;49.902;8.680;2024-01-10T14:49:07;5;4;
30342;PMS5003;17145;49.902;8.680;2024-01-10T14:51:35;8;5;
30342;PMS5003;17145;49.902;8.680;2024-01-10T14:54:02;7;7;
30342;PMS5003;17145;49.902;8.680;2024-01-10T14:56:30;5;5;
30342;PMS5003;17145;49.902;8.680;2024-01-10T14:58:57;7;7;
30342;PMS5003;17145;49.902;8.680;2024-01-10T15:01:25;5;5;
30342;PMS5003;17145;49.902;8.680;2024-01-10T15:03:52;5;5;
30342;PMS5003;17145;49.902;8.680;2024-01-10T15:06:20;2;2;
30342;PMS5003;17145;49.902;8.680;2024-01-10T15:08:47;8;5;
30342;PMS5003;17145;49.902;8.680;2024-01-10T15:11:15;5;5;
30342;PMS5003;17145;49.902;8.680;2024-01-10T15:13:42;4;2;
30342;PMS5003;17145;49.902;8.680;2024-01-10T15:16:11;5;5;
30342;PMS5003;17145;49.902;8.680;2024-01-10T15:18:38;7;4;
30342;PMS5003;17145;49.902;8.680;2024-01-10T15:21:06;8;8;
30342;PMS5003;17145;49.902;8.680;2024-01-10T15:23:33;7;7;
30342;PMS5003;17145;49.902;8.680;2024-01-10T15:26:01;5;5;
30342;PMS5003;17145;49.902;8.680;2024-01-10T15:28:29;5;5;
30342;PMS5003;17145;49.902;8.680;2024-01-10T15:30:56;7;4;
30342;PMS5003;17145;49.902;8.680;2024-01-10T15:33:24;5;4;
30342;PMS5003;17145;49.902;8.680;2024-01-10T15:35:51;5;5;
30342;PMS5003;17145;49.902;8.680;2024-01-10T15:38:19;5;4;
30342;PMS5003;17145;49.902;8.680;2024-01-10T15:40:46;5;5;
30342;PMS5003;17145;49.902;8.680;2024-01-10T15:43:13;5;5;
30342;PMS5003;17145;49.902;8.680;2024-01-10T15:45:41;5;5;
30342;PMS5003;17145;49.902;8.680;2024-01-10T15:48:08;5;5;
30342;PMS5003;17145;49.902;8.680;2024-01-10T15:50:36;4;4;
30342;PMS5003;17145;49.902;8.680;2024-01-10T15:53:03;4;4;
30342;PMS5003;17145;49.902;8.680;2024-01-10T15:55:31;5;5;
30342;PMS5003;17145;49.902;8.680;2024-01-10T15:57:58;4;4;
30342;PMS5003;17145;49.902;8.680;2024-01-10T16:00:26;4;4;
30342;PMS5003;17145;49.902;8.680;2024-01-10T16:02:53;4;4;
30342;PMS5003;17145;49.902;8.680;2024-01-10T16:05:20;5;5;
30342;PMS5003;17145;49.902;8.680;2024-01-10T16:07:48;5;5;
30342;PMS5003;17145;49.902;8.680;2024-01-10T16:10:15;5;5;
30342;PMS5003;17145;49.902;8.680;2024-01-10T16:12:43;8;5;
30342;PMS5003;17145;49.902;8.680;2024-01-10T16:15:10;5;4;
30342;PMS5003;17145;49.902;8.680;2024-01-10T16:17:38;5;4;
30342;PMS5003;17145;49.902;8.680;2024-01-10T16:20:06;7;7;
30342;PMS5003;17145;49.902;8.680;2024-01-10T16:22:33;7;5;
30342;PMS5003;17145;49.902;8.680;2024-01-10T16:25:01;7;5;
30342;PMS5003;17145;49.902;8.680;2024-01-10T16:27:28;5;5;
30342;PMS5003;17145;49.902;8.680;2024-01-10T16:29:56;7;5;
30342;PMS5003;17145;49.902;8.680;2024-01-10T16:32:23;5;4;
30342;PMS5003;17145;49.902;8.680;2024-01-10T16:34:50;5;5;
30342;PMS5003;17145;49.902;8.680;2024-01-10T16:37:18;4;4;
30342;PMS5003;17145;49.902;8.680;2024-01-10T16:39:45;7;5;
30342;PMS5003;17145;49.902;8.680;2024-01-10T16:42:12;5;5;
30342;PMS5003;17145;49.902;8.680;2024-01-10T16:44:40;5;5;
30342;PMS5003;17145;49.902;8.680;2024-01-10T16:47:07;5;5;
30342;PMS5003;17145;49.902;8.680;2024-01-10T16:49:35;5;5;
30342;PMS5003;17145;49.902;8.680;2024-01-10T16:52:02;5;5;
30342;PMS5003;17145;49.902;8.680;2024-01-10T16:54:30;5;4;
30342;PMS5003;17145;49.902;8.680;2024-01-10T16:56:57;5;5;
30342;PMS5003;17145;49.902;8.680;2024-01-10T16:59:25;5;5;